New Orleans, LA (70130)

3:03 PM CDT on March 26, 2015 (GMT -0500)
David Crockett Fire Co. No.1 | Change Station
CLOSE
Current Station
Personal Weather Station
Location: Gretna, LA
Elevation: 7 ft
Nearby Weather Stations

Elev 7 ft 29.91 °N, 90.06 °W | Updated 9 minutes ago

Rain
Rain
63.8 °F
Feels Like 63.8 °F
N
5.0
Wind Variable Wind from SSW
Gusts 10.0 mph

Today
High -- | Low -- °F
--% Chance of Precip.
Yesterday
High -- | Low -- °F
Precip. -- in
6:57 AM 7:15 PM
Waxing Crescent, 45% visible
Pressure 29.81 in
Visibility 6.0 miles
Clouds Overcast 11000 ft
Dew Point 62 °F
Humidity 92%
Rainfall 0.77 in
Snow Depth Not available.
UV 3 out of 12
Pollen 10.20 out of 12
Air Quality Not available.
Flu Activity Not available.
METAR KNEW 261953Z 16013KT 6SM TS HZ OVC110 18/15 A2982 RMK AO2 WSHFT 1852 RAE1856B13E37 TSB37 SLP092 P0003 T01830150

More Conditions Fewer Conditions

Pressure 29.81 in
Visibility 6.0 miles
Clouds Overcast 11000 ft
Dew Point 62 °F
Humidity 92%
Rainfall 0.77 in
Snow Depth Not available.
UV 3 out of 12
Pollen 10.20 out of 12
Air Quality Not available.
Flu Activity Not available.
METAR KNEW 261953Z 16013KT 6SM TS HZ OVC110 18/15 A2982 RMK AO2 WSHFT 1852 RAE1856B13E37 TSB37 SLP092 P0003 T01830150

More Conditions Fewer Conditions

10-Day Weather Forecast

Almanac

Astronomy

Mar. 26, 2015 Rise Set
Actual Time
Civil Twilight
Nautical Twilight
Astronomical Twilight
Moon
Length of Visible Light
Length of Day
Tomorrow will be .
, % of the Moon is Illuminated

Today's Extremes

State Highs State Lows

Community

WunderPhotos

Upload Photos

1,808,611 photos uploaded!

WunderBlogs® & News

Nearby

Air Quality

  Air Quality AQ Index Pollutant
Not available.

Snow Depth

Station Depth Elevation

Earthquake Activity

City Distance Mag. Time & Date
Minimum magnitude displayed is 2.5.

Coastal Water Temperatures

Place Temperature

Stations

Nearby Weather Stations

Station Location Temp. Windchill Dew Point Humidity Wind Precip. Elev Updated Type